createdAt,value
2022-10-06T14:35:14.560Z,5.90
2022-10-06T14:37:42.610Z,10.52
2022-10-06T14:40:12.240Z,10.00
2022-10-06T14:42:40.597Z,12.60
2022-10-06T14:45:09.118Z,8.65
2022-10-06T14:47:38.405Z,3.65
2022-10-06T14:50:07.551Z,9.45
2022-10-06T14:52:36.202Z,6.00
2022-10-06T14:55:05.223Z,6.75
2022-10-06T14:57:34.642Z,11.30
2022-10-06T15:00:03.549Z,10.15
2022-10-06T15:02:31.666Z,7.65
2022-10-06T15:04:59.793Z,8.05
2022-10-06T15:07:46.510Z,9.35
2022-10-06T15:10:14.783Z,12.63
2022-10-06T15:12:42.821Z,9.38
2022-10-06T15:15:11.110Z,10.88
2022-10-06T15:17:39.512Z,10.77
2022-10-06T15:20:08.510Z,11.98
2022-10-06T15:22:36.437Z,13.32
2022-10-06T15:25:05.766Z,13.40
2022-10-06T15:27:52.468Z,13.52
2022-10-06T15:30:21.335Z,11.98
2022-10-06T15:32:49.845Z,15.25
2022-10-06T15:35:17.744Z,14.05
2022-10-06T15:37:46.076Z,12.52
2022-10-06T15:40:14.454Z,15.75
2022-10-06T15:42:42.387Z,13.95
2022-10-06T15:45:10.936Z,13.10
2022-10-06T15:47:38.828Z,15.48
2022-10-06T15:50:07.198Z,9.98
2022-10-06T15:52:35.617Z,10.40
2022-10-06T15:55:03.825Z,14.63
2022-10-06T15:57:31.776Z,10.63
2022-10-06T16:00:03.097Z,8.02
2022-10-06T16:02:40.395Z,8.25
2022-10-06T16:05:09.002Z,12.90
2022-10-06T16:07:36.892Z,10.88
2022-10-06T16:10:05.339Z,7.35
2022-10-06T16:12:33.753Z,8.25
2022-10-06T16:15:01.581Z,11.38
2022-10-06T16:17:29.429Z,8.13
2022-10-06T16:19:57.926Z,9.95
2022-10-06T16:22:25.739Z,6.65
2022-10-06T16:24:53.631Z,8.00
2022-10-06T16:27:21.960Z,8.50
2022-10-06T16:29:49.842Z,9.70
2022-10-06T16:32:17.669Z,10.25
2022-10-06T16:34:50.552Z,10.73
2022-10-06T16:37:18.474Z,10.75
2022-10-06T16:39:47.540Z,13.60
2022-10-06T16:42:15.675Z,9.90
2022-10-06T16:44:43.523Z,15.65
2022-10-06T16:47:11.590Z,17.85
2022-10-06T16:49:39.706Z,13.75
2022-10-06T16:52:07.681Z,11.85
2022-10-06T16:54:35.886Z,16.70
2022-10-06T16:57:06.918Z,18.02
2022-10-06T16:59:35.012Z,14.38
2022-10-06T17:02:03.176Z,15.75
2022-10-06T17:04:31.274Z,10.02
2022-10-06T17:06:59.374Z,13.73
2022-10-06T17:09:29.849Z,11.68
2022-10-06T17:12:03.400Z,10.63
2022-10-06T17:14:33.352Z,15.25
2022-10-06T17:17:01.638Z,11.18
2022-10-06T17:19:31.145Z,11.90
2022-10-06T17:22:00.090Z,12.32
2022-10-06T17:24:29.783Z,11.13
2022-10-06T17:26:59.229Z,10.32
2022-10-06T17:29:27.518Z,14.18
2022-10-06T17:32:00.243Z,10.10
2022-10-06T17:34:33.483Z,19.75
2022-10-06T17:37:02.586Z,9.82
2022-10-06T17:39:31.412Z,13.75
2022-10-06T17:41:59.962Z,17.73
2022-10-06T17:44:29.429Z,12.02
2022-10-06T17:47:00.805Z,14.38
2022-10-06T17:49:32.930Z,15.00
2022-10-06T17:52:01.529Z,15.95
2022-10-06T17:54:32.072Z,15.55
2022-10-06T17:57:00.416Z,15.90
2022-10-06T17:59:31.543Z,17.58
2022-10-06T18:02:07.310Z,20.65
2022-10-06T18:04:39.000Z,16.80
2022-10-06T18:09:36.589Z,19.33
2022-10-06T18:12:05.116Z,20.85
2022-10-06T18:14:33.761Z,18.13
2022-10-06T18:17:04.071Z,21.77
2022-10-06T18:19:35.102Z,16.10
2022-10-06T18:22:11.763Z,22.15
2022-10-06T18:24:40.748Z,16.52
2022-10-06T18:27:09.205Z,13.18
2022-10-06T18:29:38.792Z,11.80
2022-10-06T18:37:44.582Z,7.20
2022-10-06T18:40:14.991Z,14.32
2022-10-06T18:42:43.188Z,8.77
2022-10-06T18:45:33.211Z,11.95
2022-10-06T18:48:22.325Z,10.52
2022-10-06T18:51:01.153Z,14.70
2022-10-06T18:53:32.721Z,9.13
2022-10-06T18:56:01.107Z,7.78
2022-10-06T18:58:30.159Z,11.75
2022-10-06T19:01:03.724Z,18.58
2022-10-06T19:03:32.163Z,14.60
2022-10-06T19:06:00.341Z,18.17
2022-10-06T19:08:28.397Z,10.90
2022-10-06T19:11:17.428Z,13.05
2022-10-06T19:13:49.576Z,11.65
2022-10-06T19:16:18.680Z,12.52
2022-10-06T19:18:47.426Z,11.52
2022-10-06T19:21:15.583Z,9.70
2022-10-06T19:23:44.156Z,7.10
2022-10-06T19:26:13.261Z,12.05
2022-10-06T19:28:41.602Z,12.85
2022-10-06T19:31:20.224Z,12.40
2022-10-06T19:33:49.177Z,14.77
2022-10-06T19:36:17.750Z,13.27
2022-10-06T19:38:45.870Z,16.38
2022-10-06T19:41:33.422Z,11.57
2022-10-06T19:44:04.188Z,11.00
2022-10-06T19:46:32.125Z,15.32
2022-10-06T19:49:05.872Z,12.65
2022-10-06T19:51:35.192Z,14.80
2022-10-06T19:54:04.861Z,11.68
2022-10-06T19:56:33.519Z,14.10
2022-10-06T19:59:03.542Z,11.50
2022-10-06T20:01:32.582Z,13.32
2022-10-06T20:04:04.079Z,13.55
2022-10-06T20:06:35.995Z,14.18
2022-10-06T20:09:09.536Z,17.70
2022-10-06T20:11:41.608Z,14.52
2022-10-06T20:14:20.567Z,14.85
2022-10-06T20:16:51.964Z,20.75
2022-10-06T20:19:33.533Z,21.30
2022-10-06T20:22:06.894Z,26.92
2022-10-06T20:24:35.433Z,42.20
2022-10-06T20:27:03.389Z,55.97
2022-10-06T20:29:31.972Z,50.92
2022-10-06T20:32:00.285Z,55.95
2022-10-06T20:34:33.238Z,37.17
2022-10-06T20:37:03.614Z,35.03
2022-10-06T20:39:52.588Z,20.38
2022-10-06T20:42:21.805Z,15.45
2022-10-06T20:44:50.085Z,11.55
2022-10-06T20:47:18.498Z,15.23
2022-10-06T20:49:46.803Z,15.45
2022-10-06T20:52:15.075Z,73.40
2022-10-06T20:54:43.415Z,83.13
2022-10-06T20:57:12.579Z,241.93
2022-10-06T20:59:40.766Z,163.15
2022-10-06T21:02:11.205Z,41.72
2022-10-06T21:04:43.807Z,19.40
2022-10-06T21:07:12.750Z,18.67
2022-10-06T21:09:41.240Z,16.55
2022-10-06T21:12:09.521Z,15.90
2022-10-06T21:14:38.077Z,14.30
2022-10-06T21:17:06.015Z,15.18
2022-10-06T21:19:38.222Z,14.13
2022-10-06T21:22:07.006Z,15.52
2022-10-06T21:24:35.049Z,13.18
2022-10-06T21:27:03.390Z,13.85
2022-10-06T21:29:31.658Z,15.35
2022-10-06T21:31:59.823Z,16.30
2022-10-06T21:34:28.104Z,16.77
2022-10-06T21:36:56.505Z,18.30
2022-10-06T21:39:24.466Z,48.45
2022-10-06T21:41:52.438Z,29.30
2022-10-06T21:44:20.606Z,48.28
2022-10-06T21:46:54.901Z,26.80
2022-10-06T21:49:24.860Z,18.35
2022-10-06T21:51:55.566Z,19.38
2022-10-06T21:54:24.274Z,14.82
2022-10-06T21:56:52.715Z,15.70
2022-10-06T21:59:21.062Z,153.82
2022-10-06T22:01:52.206Z,74.55
2022-10-06T22:04:20.178Z,24.38
2022-10-06T22:06:52.043Z,17.55
2022-10-06T22:09:21.010Z,15.75
2022-10-06T22:11:50.034Z,14.18
2022-10-06T22:14:20.379Z,9.40
2022-10-06T22:16:48.996Z,9.45
2022-10-06T22:19:18.237Z,8.52
2022-10-06T22:21:49.013Z,13.75
2022-10-06T22:24:20.376Z,14.38
2022-10-06T22:27:01.434Z,14.60
2022-10-06T22:29:29.547Z,16.40
2022-10-06T22:31:58.764Z,15.95
2022-10-06T22:34:27.597Z,14.00
2022-10-06T22:36:55.706Z,14.38
2022-10-06T22:39:23.509Z,12.63
2022-10-06T22:41:51.603Z,13.07
2022-10-06T22:44:20.292Z,10.93
2022-10-06T22:46:48.347Z,9.85
2022-10-06T22:49:16.399Z,8.70
2022-10-06T22:51:44.658Z,13.30
2022-10-06T22:54:18.909Z,12.13
2022-10-06T22:56:47.042Z,12.60
2022-10-06T22:59:15.338Z,18.13
2022-10-06T23:01:43.325Z,15.88
2022-10-06T23:04:11.548Z,16.45
2022-10-06T23:06:39.427Z,12.38
2022-10-06T23:09:07.728Z,14.90
2022-10-06T23:11:36.155Z,12.27
2022-10-06T23:14:03.998Z,14.77
2022-10-06T23:16:31.886Z,16.55
2022-10-06T23:19:01.042Z,11.48
2022-10-06T23:21:28.923Z,9.68
2022-10-06T23:24:00.151Z,10.75
2022-10-06T23:26:28.511Z,13.27
2022-10-06T23:29:01.339Z,13.02
2022-10-06T23:31:30.114Z,12.77
2022-10-06T23:33:58.591Z,11.25
2022-10-06T23:36:26.506Z,13.48
2022-10-06T23:38:54.719Z,15.00
2022-10-06T23:41:23.022Z,18.60
2022-10-06T23:43:51.170Z,16.45
2022-10-06T23:46:19.211Z,17.67
2022-10-06T23:48:48.508Z,13.63
2022-10-06T23:51:17.086Z,16.45
2022-10-06T23:53:45.771Z,18.77
2022-10-06T23:56:14.501Z,15.32
2022-10-06T23:58:42.899Z,22.80
